createdAt,value
2019-03-16T00:00:33.817Z,78.23
2019-03-16T00:02:59.843Z,77.84
2019-03-16T00:05:25.865Z,78.08
2019-03-16T00:07:52.124Z,78.02
2019-03-16T00:10:18.249Z,78.71
2019-03-16T00:12:44.399Z,79.31
2019-03-16T00:15:10.554Z,79.75
2019-03-16T00:17:36.873Z,79.80
2019-03-16T00:20:05.999Z,79.11
2019-03-16T00:22:32.069Z,79.87
2019-03-16T00:24:58.098Z,79.37
2019-03-16T00:27:24.214Z,79.70
2019-03-16T00:29:50.269Z,79.90
2019-03-16T00:32:16.382Z,79.22
2019-03-16T00:34:42.415Z,80.14
2019-03-16T00:37:08.780Z,81.40
2019-03-16T00:39:34.991Z,81.07
2019-03-16T00:42:01.115Z,81.67
2019-03-16T00:44:27.499Z,81.27
2019-03-16T00:46:54.008Z,82.15
2019-03-16T00:49:20.162Z,82.37
2019-03-16T00:51:46.732Z,83.81
2019-03-16T00:54:12.894Z,84.60
2019-03-16T00:56:39.883Z,86.30
2019-03-16T00:59:06.251Z,86.50
2019-03-16T01:01:32.502Z,86.63
2019-03-16T01:03:58.556Z,87.58
2019-03-16T01:06:25.120Z,87.75
2019-03-16T01:08:51.338Z,87.03
2019-03-16T01:11:17.380Z,86.67
2019-03-16T01:13:43.981Z,86.35
2019-03-16T01:16:10.112Z,85.71
2019-03-16T01:18:36.172Z,84.40
2019-03-16T01:21:02.312Z,84.53
2019-03-16T01:23:28.430Z,84.71
2019-03-16T01:25:54.621Z,84.91
2019-03-16T01:28:20.740Z,84.00
2019-03-16T01:30:46.975Z,83.77
2019-03-16T01:33:13.067Z,83.44
2019-03-16T01:35:39.326Z,83.28
2019-03-16T01:38:05.974Z,83.15
2019-03-16T01:40:32.032Z,83.05
2019-03-16T01:42:58.184Z,82.50
2019-03-16T01:45:24.385Z,82.57
2019-03-16T01:47:50.574Z,82.67
2019-03-16T01:50:16.737Z,82.64
2019-03-16T01:52:42.825Z,82.08
2019-03-16T01:55:08.985Z,81.70
2019-03-16T01:57:35.282Z,82.44
2019-03-16T02:00:03.288Z,81.87
2019-03-16T02:02:29.331Z,82.12
2019-03-16T02:04:55.707Z,82.92
2019-03-16T02:07:21.932Z,82.93
2019-03-16T02:09:48.098Z,82.67
2019-03-16T02:12:16.011Z,82.57
2019-03-16T02:14:42.094Z,82.78
2019-03-16T02:17:08.182Z,83.64
2019-03-16T02:19:54.143Z,83.59
2019-03-16T02:22:20.223Z,82.96
2019-03-16T02:24:46.286Z,83.04
2019-03-16T02:27:15.321Z,82.42
2019-03-16T02:29:41.361Z,81.97
2019-03-16T02:32:07.395Z,81.80
2019-03-16T02:34:33.444Z,82.87
2019-03-16T02:36:59.786Z,84.14
2019-03-16T02:39:25.844Z,83.93
2019-03-16T02:41:51.949Z,83.68
2019-03-16T02:44:18.123Z,83.73
2019-03-16T02:46:44.138Z,82.28
2019-03-16T02:49:10.179Z,82.58
2019-03-16T02:51:36.291Z,81.68
2019-03-16T02:54:02.446Z,82.00
2019-03-16T02:56:28.529Z,82.54
2019-03-16T02:58:54.638Z,81.76
2019-03-16T03:01:20.938Z,81.43
2019-03-16T03:03:47.027Z,81.35
2019-03-16T03:06:13.130Z,81.18
2019-03-16T03:08:39.261Z,81.28
2019-03-16T03:11:05.443Z,81.47
2019-03-16T03:13:31.538Z,81.33
2019-03-16T03:15:57.651Z,82.18
2019-03-16T03:18:23.772Z,82.31
2019-03-16T03:20:49.961Z,82.38
2019-03-16T03:23:16.216Z,82.81
2019-03-16T03:25:42.857Z,82.66
2019-03-16T03:28:09.002Z,82.32
2019-03-16T03:30:35.136Z,83.02
2019-03-16T03:33:01.313Z,83.31
2019-03-16T03:35:29.462Z,83.21
2019-03-16T03:37:55.355Z,83.69
2019-03-16T03:40:21.515Z,84.22
2019-03-16T03:42:47.639Z,83.98
2019-03-16T03:45:13.881Z,84.17
2019-03-16T03:47:40.073Z,83.47
2019-03-16T03:50:11.324Z,83.56
2019-03-16T03:52:37.763Z,83.50
2019-03-16T03:55:06.317Z,83.05
2019-03-16T03:57:32.467Z,82.93
2019-03-16T03:59:58.576Z,82.86
2019-03-16T04:02:24.633Z,82.51
2019-03-16T04:04:50.769Z,82.79
2019-03-16T04:07:20.191Z,82.84
2019-03-16T04:09:45.672Z,82.41
2019-03-16T04:12:12.086Z,81.99
2019-03-16T04:14:38.139Z,82.07
2019-03-16T04:17:04.257Z,82.56
2019-03-16T04:19:30.376Z,82.57
2019-03-16T04:21:56.414Z,82.13
2019-03-16T04:24:23.269Z,82.29
2019-03-16T04:26:49.431Z,82.34
2019-03-16T04:29:15.475Z,82.21
2019-03-16T04:31:41.686Z,82.03
2019-03-16T04:34:07.851Z,82.62
2019-03-16T04:36:33.926Z,82.90
2019-03-16T04:39:00.045Z,82.76
2019-03-16T04:41:26.200Z,83.60
2019-03-16T04:43:52.255Z,83.89
2019-03-16T04:46:18.280Z,83.85
2019-03-16T04:48:46.783Z,83.95
2019-03-16T04:51:12.857Z,83.98
2019-03-16T04:53:38.912Z,84.00
2019-03-16T04:56:05.033Z,84.10
2019-03-16T04:58:31.060Z,83.94
2019-03-16T05:00:57.099Z,83.92
2019-03-16T05:03:23.175Z,84.53
2019-03-16T05:05:49.350Z,84.31
2019-03-16T05:08:15.390Z,84.39
2019-03-16T05:10:41.447Z,84.42
2019-03-16T05:13:07.595Z,84.13
2019-03-16T05:15:36.653Z,84.36
2019-03-16T05:18:02.840Z,84.30
2019-03-16T05:20:28.981Z,84.74
2019-03-16T05:22:55.054Z,84.21
2019-03-16T05:25:21.547Z,83.95
2019-03-16T05:27:47.759Z,83.72
2019-03-16T05:30:13.909Z,83.48
2019-03-16T05:32:40.227Z,83.66
2019-03-16T05:35:06.949Z,83.89
2019-03-16T05:37:33.117Z,84.20
2019-03-16T05:39:59.249Z,84.64
2019-03-16T05:42:25.301Z,84.44
2019-03-16T05:44:51.475Z,84.40
2019-03-16T05:47:17.517Z,84.24
2019-03-16T05:49:43.592Z,84.39
2019-03-16T05:52:09.653Z,84.33
2019-03-16T05:54:35.817Z,84.15
2019-03-16T05:57:01.988Z,84.56
2019-03-16T05:59:28.249Z,84.51
2019-03-16T06:01:54.328Z,84.11
2019-03-16T06:04:20.459Z,84.04
2019-03-16T06:06:46.519Z,83.85
2019-03-16T06:09:12.603Z,84.32
2019-03-16T06:11:38.645Z,83.81
2019-03-16T06:14:04.803Z,83.71
2019-03-16T06:16:30.930Z,83.63
2019-03-16T06:18:57.327Z,83.66
2019-03-16T06:21:23.450Z,83.34
2019-03-16T06:23:49.638Z,83.08
2019-03-16T06:26:15.834Z,83.54
2019-03-16T06:28:41.971Z,82.89
2019-03-16T06:31:08.100Z,82.82
2019-03-16T06:33:34.490Z,82.90
2019-03-16T06:36:00.599Z,82.65
2019-03-16T06:38:26.952Z,82.90
2019-03-16T06:40:53.079Z,82.97
2019-03-16T06:43:19.199Z,82.86
2019-03-16T06:45:45.402Z,82.73
2019-03-16T06:48:11.517Z,82.37
2019-03-16T06:50:37.691Z,82.58
2019-03-16T06:53:03.874Z,82.20
2019-03-16T06:55:30.164Z,82.24
2019-03-16T06:57:56.266Z,82.21
2019-03-16T07:00:22.399Z,81.60
2019-03-16T07:02:48.515Z,81.42
2019-03-16T07:05:14.918Z,80.84
2019-03-16T07:07:41.078Z,81.34
2019-03-16T07:10:09.859Z,84.03
2019-03-16T07:12:35.940Z,81.41
2019-03-16T07:15:03.415Z,81.28
2019-03-16T07:17:29.473Z,80.64
2019-03-16T07:19:55.590Z,80.54
2019-03-16T07:22:21.738Z,79.67
2019-03-16T07:24:47.802Z,78.00
2019-03-16T07:27:25.738Z,77.92
2019-03-16T07:29:44.147Z,77.35
2019-03-16T07:32:10.192Z,76.74
2019-03-16T07:34:36.490Z,76.81
2019-03-16T07:37:02.593Z,77.25
2019-03-16T07:39:28.655Z,76.62
2019-03-16T07:41:54.809Z,76.24
2019-03-16T07:44:20.936Z,75.62
2019-03-16T07:46:46.994Z,75.95
2019-03-16T07:49:13.117Z,75.94
2019-03-16T07:51:39.238Z,77.13
2019-03-16T07:54:05.445Z,76.89
2019-03-16T07:56:31.838Z,76.78
2019-03-16T07:58:58.079Z,77.04
2019-03-16T08:01:24.199Z,76.71
2019-03-16T08:03:50.388Z,76.26
2019-03-16T08:06:16.684Z,76.98
2019-03-16T08:08:46.099Z,76.43
2019-03-16T08:11:12.271Z,76.84
2019-03-16T08:13:40.403Z,77.35
2019-03-16T08:16:06.812Z,76.94
2019-03-16T08:18:33.249Z,77.33
2019-03-16T08:20:59.723Z,76.94
2019-03-16T08:23:26.651Z,77.13
2019-03-16T08:25:52.956Z,77.64
2019-03-16T08:28:19.066Z,77.49
2019-03-16T08:30:47.024Z,77.23
2019-03-16T08:33:13.087Z,77.73
2019-03-16T08:35:39.138Z,77.19
2019-03-16T08:38:05.231Z,76.86
2019-03-16T08:40:31.260Z,76.55
2019-03-16T08:42:57.384Z,76.49
2019-03-16T08:45:23.437Z,75.91
2019-03-16T08:47:49.554Z,75.55
2019-03-16T08:50:15.627Z,75.55
2019-03-16T08:52:41.679Z,75.34
2019-03-16T08:55:09.153Z,74.12
2019-03-16T08:57:35.302Z,72.19
2019-03-16T09:02:39.628Z,69.57
2019-03-16T09:05:12.294Z,69.21
2019-03-16T09:07:38.787Z,67.94
2019-03-16T09:10:08.738Z,67.80
2019-03-16T09:12:34.831Z,66.43
2019-03-16T09:15:00.881Z,65.52
2019-03-16T09:17:26.947Z,66.23
2019-03-16T09:19:53.028Z,66.32
2019-03-16T09:22:19.467Z,64.88
2019-03-16T09:24:45.764Z,64.19
2019-03-16T09:27:11.786Z,65.56
2019-03-16T09:29:37.915Z,65.72
2019-03-16T09:32:04.305Z,66.35
2019-03-16T09:34:30.505Z,67.37
2019-03-16T09:36:56.860Z,68.34
2019-03-16T09:39:23.026Z,68.81
2019-03-16T09:41:49.504Z,68.08
2019-03-16T09:44:16.145Z,68.00
2019-03-16T09:46:42.267Z,67.15
2019-03-16T09:49:11.162Z,68.25
2019-03-16T09:51:37.425Z,67.16
2019-03-16T09:54:03.621Z,67.10
2019-03-16T09:56:29.801Z,67.03
2019-03-16T09:58:55.831Z,66.51
2019-03-16T10:01:21.951Z,66.09
2019-03-16T10:03:48.088Z,66.35
2019-03-16T10:06:14.155Z,65.58
2019-03-16T10:08:40.167Z,65.74
2019-03-16T10:11:06.252Z,65.95
2019-03-16T10:13:32.943Z,66.21
2019-03-16T10:15:59.745Z,65.96
2019-03-16T10:18:25.798Z,66.19
2019-03-16T10:20:51.853Z,64.98
2019-03-16T10:23:17.937Z,65.24
2019-03-16T10:25:44.061Z,65.23
2019-03-16T10:28:10.202Z,64.96
2019-03-16T10:30:36.198Z,62.59
2019-03-16T10:33:02.182Z,63.00
2019-03-16T10:35:28.226Z,63.58
2019-03-16T10:37:54.284Z,63.96
2019-03-16T10:40:20.384Z,63.80
2019-03-16T10:42:46.843Z,64.47
2019-03-16T10:45:12.983Z,64.07
2019-03-16T10:47:39.106Z,63.39
2019-03-16T10:50:11.059Z,62.50
2019-03-16T10:52:37.211Z,63.71
2019-03-16T10:55:05.582Z,64.53
2019-03-16T10:57:31.667Z,64.01
2019-03-16T11:02:51.403Z,62.21
2019-03-16T11:05:19.511Z,61.74
2019-03-16T11:07:45.765Z,63.29
2019-03-16T11:10:13.116Z,62.69
2019-03-16T11:12:39.264Z,63.37
2019-03-16T11:15:07.996Z,64.58
2019-03-16T11:17:34.179Z,63.57
2019-03-16T11:20:00.425Z,63.23
2019-03-16T11:22:26.669Z,63.71
2019-03-16T11:24:53.167Z,64.24
2019-03-16T11:27:19.398Z,64.13
2019-03-16T11:29:45.933Z,63.23
2019-03-16T11:32:13.322Z,63.40
2019-03-16T11:34:39.428Z,64.16
2019-03-16T11:37:05.529Z,64.46
2019-03-16T11:39:32.339Z,64.30
2019-03-16T11:41:58.824Z,63.92
2019-03-16T11:44:25.083Z,63.27
2019-03-16T11:46:51.280Z,62.61
2019-03-16T11:49:17.444Z,62.31
2019-03-16T11:51:43.607Z,62.71
2019-03-16T11:54:09.803Z,62.58
2019-03-16T11:56:36.298Z,62.26
2019-03-16T11:59:02.442Z,62.36
2019-03-16T12:01:28.596Z,63.23
2019-03-16T12:03:54.674Z,62.69
2019-03-16T12:06:20.692Z,62.48
2019-03-16T12:08:46.960Z,63.23
2019-03-16T12:11:13.202Z,63.83
2019-03-16T12:13:39.318Z,64.06
2019-03-16T12:16:05.489Z,65.06
2019-03-16T12:18:31.799Z,63.52
2019-03-16T12:20:57.935Z,63.20
2019-03-16T12:23:24.047Z,62.26
2019-03-16T12:25:52.425Z,62.52
2019-03-16T12:28:18.880Z,63.36
2019-03-16T12:30:44.919Z,59.61
2019-03-16T12:33:11.027Z,60.59
2019-03-16T12:35:37.229Z,60.49
2019-03-16T12:38:03.369Z,61.25
2019-03-16T12:40:29.430Z,61.46
2019-03-16T12:42:56.722Z,61.53
2019-03-16T12:45:23.094Z,61.67
2019-03-16T12:47:49.138Z,60.10
2019-03-16T12:50:15.276Z,63.32
2019-03-16T12:52:41.997Z,65.74
2019-03-16T12:55:09.392Z,66.83
2019-03-16T12:57:35.724Z,66.22
2019-03-16T13:00:04.993Z,67.32
2019-03-16T13:02:31.222Z,65.61
2019-03-16T13:04:57.344Z,66.43
2019-03-16T13:07:24.147Z,68.78
2019-03-16T13:09:50.474Z,71.69
2019-03-16T13:12:16.562Z,74.64
2019-03-16T13:14:42.824Z,75.24
2019-03-16T13:17:09.078Z,75.90
2019-03-16T13:19:35.343Z,74.80
2019-03-16T13:22:01.551Z,76.04
2019-03-16T13:24:27.716Z,76.26
2019-03-16T13:26:53.922Z,75.69
2019-03-16T13:29:20.117Z,76.55
2019-03-16T13:31:46.236Z,76.39
2019-03-16T13:34:12.580Z,76.83
2019-03-16T13:36:38.787Z,75.87
2019-03-16T13:39:05.317Z,76.78
2019-03-16T13:41:31.692Z,77.93
2019-03-16T13:43:57.938Z,78.03
2019-03-16T13:46:24.128Z,79.19
2019-03-16T13:48:50.211Z,79.09
2019-03-16T13:51:16.650Z,79.87
2019-03-16T13:53:43.056Z,80.57
2019-03-16T13:56:10.311Z,81.76
2019-03-16T13:58:36.502Z,82.57
2019-03-16T14:01:02.864Z,83.24
2019-03-16T14:03:29.025Z,83.93
2019-03-16T14:05:55.608Z,84.11
2019-03-16T14:08:21.752Z,84.29
2019-03-16T14:10:47.934Z,84.11
2019-03-16T14:13:14.300Z,84.45
2019-03-16T14:15:40.485Z,85.61
2019-03-16T14:18:06.643Z,85.10
2019-03-16T14:20:32.750Z,85.21
2019-03-16T14:22:59.318Z,86.18
2019-03-16T14:25:25.781Z,87.30
2019-03-16T14:27:51.972Z,87.52
2019-03-16T14:30:34.814Z,89.41
2019-03-16T14:32:47.412Z,90.32
2019-03-16T14:35:13.793Z,90.99
2019-03-16T14:37:40.286Z,91.29
2019-03-16T14:40:12.683Z,91.35
2019-03-16T14:42:46.333Z,90.42
2019-03-16T14:45:14.318Z,90.74
2019-03-16T14:47:40.547Z,91.32
2019-03-16T14:50:21.024Z,91.79
2019-03-16T14:52:47.241Z,92.51
2019-03-16T14:55:14.152Z,93.00
2019-03-16T14:57:40.250Z,93.31
2019-03-16T15:00:14.393Z,93.03
2019-03-16T15:02:40.911Z,93.43
2019-03-16T15:05:07.497Z,93.13
2019-03-16T15:07:33.510Z,93.79
2019-03-16T15:10:00.039Z,93.88
2019-03-16T15:12:30.057Z,94.35
2019-03-16T15:14:56.214Z,93.97
2019-03-16T15:17:25.246Z,94.99
2019-03-16T15:19:50.272Z,96.25
2019-03-16T15:22:16.473Z,95.93
2019-03-16T15:24:42.733Z,94.87
2019-03-16T15:27:08.940Z,95.31
2019-03-16T15:29:35.057Z,95.73
2019-03-16T15:32:01.250Z,96.14
2019-03-16T15:34:27.685Z,96.60
2019-03-16T15:36:53.862Z,96.41
2019-03-16T15:39:19.999Z,96.31
2019-03-16T15:41:48.054Z,96.65
2019-03-16T15:44:14.374Z,96.79
2019-03-16T15:46:40.774Z,96.77
2019-03-16T15:49:07.003Z,96.75
2019-03-16T15:51:33.029Z,96.85
2019-03-16T15:54:01.129Z,97.44
2019-03-16T15:56:27.809Z,97.87
2019-03-16T15:58:54.200Z,97.66
2019-03-16T16:01:20.551Z,97.69
2019-03-16T16:03:46.799Z,98.34
2019-03-16T16:06:12.813Z,98.38
2019-03-16T16:08:38.906Z,98.63
2019-03-16T16:11:05.375Z,98.86
2019-03-16T16:13:31.475Z,98.76
2019-03-16T16:15:57.507Z,98.50
2019-03-16T16:18:23.776Z,98.77
2019-03-16T16:20:49.922Z,98.85
2019-03-16T16:23:15.970Z,99.07
2019-03-16T16:25:42.021Z,99.44
2019-03-16T16:28:08.058Z,99.36
2019-03-16T16:30:34.178Z,99.45
2019-03-16T16:33:00.774Z,99.11
2019-03-16T16:35:26.797Z,98.80
2019-03-16T16:37:53.428Z,98.76
2019-03-16T16:40:19.982Z,99.18
2019-03-16T16:42:46.503Z,99.45
2019-03-16T16:45:13.683Z,100.14
2019-03-16T16:47:39.897Z,100.52
2019-03-16T16:50:15.635Z,100.71
2019-03-16T16:52:41.841Z,100.43
2019-03-16T16:55:08.601Z,100.47
2019-03-16T16:57:34.644Z,100.30
2019-03-16T17:00:00.776Z,100.21
2019-03-16T17:02:26.839Z,100.51
2019-03-16T17:04:53.186Z,100.58
2019-03-16T17:07:19.310Z,100.66
2019-03-16T17:09:45.413Z,101.04
2019-03-16T17:12:11.636Z,101.51
2019-03-16T17:14:37.822Z,101.51
2019-03-16T17:17:03.895Z,101.49
2019-03-16T17:19:29.959Z,101.55
2019-03-16T17:21:56.089Z,101.61
2019-03-16T17:24:22.483Z,101.78
2019-03-16T17:26:48.676Z,101.78
2019-03-16T17:29:14.697Z,101.66
2019-03-16T17:31:42.483Z,101.43
2019-03-16T17:34:08.826Z,101.05
2019-03-16T17:36:34.850Z,101.08
2019-03-16T17:39:01.174Z,101.25
2019-03-16T17:41:27.275Z,101.10
2019-03-16T17:43:53.373Z,101.29
2019-03-16T17:46:19.526Z,101.36
2019-03-16T17:48:45.585Z,101.67
2019-03-16T17:51:11.710Z,102.03
2019-03-16T17:53:37.831Z,102.00
2019-03-16T17:56:04.038Z,101.99
2019-03-16T17:58:30.182Z,101.97
2019-03-16T18:00:56.245Z,101.98
2019-03-16T18:03:22.647Z,101.81
2019-03-16T18:05:48.801Z,101.69
2019-03-16T18:08:14.906Z,101.58
2019-03-16T18:10:41.008Z,101.82
2019-03-16T18:13:11.236Z,102.08
2019-03-16T18:15:41.389Z,102.18
2019-03-16T18:18:07.527Z,101.98
2019-03-16T18:20:33.544Z,101.66
2019-03-16T18:23:02.096Z,101.68
2019-03-16T18:25:28.280Z,101.59
2019-03-16T18:27:54.465Z,101.65
2019-03-16T18:30:21.938Z,101.70
2019-03-16T18:32:48.170Z,101.55
2019-03-16T18:35:14.260Z,101.73
2019-03-16T18:37:40.561Z,101.85
2019-03-16T18:40:12.226Z,101.93
2019-03-16T18:42:38.389Z,101.75
2019-03-16T18:45:08.265Z,102.16
2019-03-16T18:47:34.784Z,102.19
2019-03-16T18:50:01.388Z,102.39
2019-03-16T18:52:27.636Z,102.37
2019-03-16T18:54:53.874Z,102.39
2019-03-16T18:57:20.057Z,102.35
2019-03-16T18:59:46.173Z,102.39
2019-03-16T19:02:20.677Z,102.33
2019-03-16T19:04:40.472Z,102.37
2019-03-16T19:07:06.507Z,102.36
2019-03-16T19:09:32.938Z,102.23
2019-03-16T19:11:59.007Z,102.33
2019-03-16T19:14:25.092Z,102.62
2019-03-16T19:16:51.511Z,102.64
2019-03-16T19:19:17.550Z,102.81
2019-03-16T19:21:43.908Z,102.98
2019-03-16T19:24:10.301Z,103.05
2019-03-16T19:26:36.305Z,103.23
2019-03-16T19:29:02.509Z,103.34
2019-03-16T19:31:28.525Z,103.31
2019-03-16T19:33:56.674Z,103.38
2019-03-16T19:36:22.868Z,103.16
2019-03-16T19:38:49.309Z,103.21
2019-03-16T19:41:15.320Z,103.29
2019-03-16T19:43:41.499Z,103.35
2019-03-16T19:46:07.673Z,103.43
2019-03-16T19:48:33.882Z,103.54
2019-03-16T19:51:04.094Z,103.55
2019-03-16T19:53:29.227Z,103.46
2019-03-16T19:55:55.401Z,103.39
2019-03-16T19:58:21.585Z,103.40
2019-03-16T20:00:49.599Z,103.53
2019-03-16T20:03:15.919Z,103.56
2019-03-16T20:05:41.940Z,103.45
2019-03-16T20:08:08.239Z,103.46
2019-03-16T20:10:34.918Z,103.36
2019-03-16T20:13:01.782Z,103.18
2019-03-16T20:15:28.288Z,103.23
2019-03-16T20:17:54.419Z,103.23
2019-03-16T20:20:20.738Z,103.20
2019-03-16T20:22:47.375Z,103.13
2019-03-16T20:25:13.611Z,103.07
2019-03-16T20:27:39.846Z,103.07
2019-03-16T20:30:13.260Z,103.01
2019-03-16T20:32:39.470Z,103.01
2019-03-16T20:35:07.317Z,102.89
2019-03-16T20:37:35.271Z,102.49
2019-03-16T20:40:01.853Z,102.44
2019-03-16T20:42:28.468Z,102.03
2019-03-16T20:44:54.689Z,101.73
2019-03-16T20:47:20.826Z,101.64
2019-03-16T20:49:47.083Z,101.32
2019-03-16T20:52:14.433Z,101.13
2019-03-16T20:54:40.651Z,100.82
2019-03-16T20:57:07.297Z,100.21
2019-03-16T20:59:33.401Z,100.11
2019-03-16T21:01:59.984Z,100.23
2019-03-16T21:04:26.182Z,99.64
2019-03-16T21:06:52.285Z,99.60
2019-03-16T21:09:18.472Z,99.35
2019-03-16T21:11:44.674Z,99.20
2019-03-16T21:14:10.911Z,99.44
2019-03-16T21:16:37.202Z,99.00
2019-03-16T21:19:04.595Z,98.85
2019-03-16T21:21:31.015Z,98.92
2019-03-16T21:23:57.461Z,99.08
2019-03-16T21:26:23.751Z,98.70
2019-03-16T21:28:50.084Z,98.51
2019-03-16T21:31:16.435Z,97.74
2019-03-16T21:33:45.687Z,97.49
2019-03-16T21:36:12.162Z,97.58
2019-03-16T21:38:38.783Z,97.58
2019-03-16T21:41:05.186Z,97.07
2019-03-16T21:43:37.498Z,97.05
2019-03-16T21:46:04.029Z,96.50
2019-03-16T21:48:31.498Z,96.89
2019-03-16T21:50:57.900Z,97.11
2019-03-16T21:53:25.878Z,97.69
2019-03-16T21:55:52.639Z,96.10
2019-03-16T21:58:19.986Z,96.22
2019-03-16T22:00:46.622Z,95.37
2019-03-16T22:03:13.072Z,94.70
2019-03-16T22:05:39.503Z,94.40
2019-03-16T22:08:08.465Z,94.06
2019-03-16T22:10:34.868Z,93.93
2019-03-16T22:13:01.147Z,93.42
2019-03-16T22:15:27.682Z,93.50
2019-03-16T22:17:54.042Z,93.04
2019-03-16T22:20:21.758Z,92.42
2019-03-16T22:22:49.373Z,92.35
2019-03-16T22:25:15.611Z,91.68
2019-03-16T22:27:42.089Z,91.64
2019-03-16T22:30:16.304Z,90.73
2019-03-16T22:32:43.167Z,90.18
2019-03-16T22:35:09.574Z,90.07
2019-03-16T22:37:35.994Z,89.65
2019-03-16T22:40:03.173Z,89.58
2019-03-16T22:42:29.458Z,89.85
2019-03-16T22:44:55.626Z,89.08
2019-03-16T22:47:25.667Z,89.01
2019-03-16T22:49:55.921Z,88.43
2019-03-16T22:52:22.103Z,87.78
2019-03-16T22:54:48.446Z,87.28
2019-03-16T22:57:14.554Z,87.87
2019-03-16T22:59:40.589Z,87.77
2019-03-16T23:02:14.402Z,87.61
2019-03-16T23:04:41.239Z,88.18
2019-03-16T23:07:09.503Z,88.37
2019-03-16T23:09:35.733Z,88.77
2019-03-16T23:12:01.891Z,89.39
2019-03-16T23:14:28.102Z,89.25
2019-03-16T23:16:54.224Z,89.04
2019-03-16T23:19:20.414Z,88.88
2019-03-16T23:21:47.088Z,88.44
2019-03-16T23:24:13.375Z,88.31
2019-03-16T23:26:39.515Z,88.35
2019-03-16T23:29:05.779Z,88.23
2019-03-16T23:31:32.106Z,88.14
2019-03-16T23:33:58.642Z,88.04
2019-03-16T23:36:24.765Z,88.02
2019-03-16T23:38:50.895Z,88.24
2019-03-16T23:41:17.454Z,87.52
2019-03-16T23:43:43.654Z,87.67
2019-03-16T23:46:09.777Z,87.90
2019-03-16T23:48:35.811Z,88.26
2019-03-16T23:51:02.035Z,87.39
2019-03-16T23:53:28.333Z,87.11
2019-03-16T23:55:54.511Z,86.94
2019-03-16T23:58:20.719Z,87.00
